sensor_id;sensor_type;location;lat;lon;timestamp;temperature;humidity
2387;DHT22;49473;50.772;8.768;2022-09-03T00:00:37;15.60;99.90
2387;DHT22;49473;50.772;8.768;2022-09-03T00:03:10;15.60;99.90
2387;DHT22;49473;50.772;8.768;2022-09-03T00:05:44;15.60;99.90
2387;DHT22;49473;50.772;8.768;2022-09-03T00:08:15;15.50;99.90
2387;DHT22;49473;50.772;8.768;2022-09-03T00:10:50;15.50;99.90
2387;DHT22;49473;50.772;8.768;2022-09-03T00:13:22;15.50;99.90
2387;DHT22;49473;50.772;8.768;2022-09-03T00:15:50;15.40;99.90
2387;DHT22;49473;50.772;8.768;2022-09-03T00:18:21;15.30;99.90
2387;DHT22;49473;50.772;8.768;2022-09-03T00:20:53;15.20;99.90
2387;DHT22;49473;50.772;8.768;2022-09-03T00:23:24;15.20;99.90
2387;DHT22;49473;50.772;8.768;2022-09-03T00:25:57;15.10;99.90
2387;DHT22;49473;50.772;8.768;2022-09-03T00:28:29;15.10;99.90
2387;DHT22;49473;50.772;8.768;2022-09-03T00:31:05;15.10;99.90
2387;DHT22;49473;50.772;8.768;2022-09-03T00:33:33;15.00;99.90
2387;DHT22;49473;50.772;8.768;2022-09-03T00:36:11;15.00;99.90
2387;DHT22;49473;50.772;8.768;2022-09-03T00:38:39;14.90;99.90
2387;DHT22;49473;50.772;8.768;2022-09-03T00:41:10;14.80;99.90
2387;DHT22;49473;50.772;8.768;2022-09-03T00:43:54;14.80;99.90
2387;DHT22;49473;50.772;8.768;2022-09-03T00:46:28;14.70;99.90
2387;DHT22;49473;50.772;8.768;2022-09-03T00:49:16;14.70;99.90
2387;DHT22;49473;50.772;8.768;2022-09-03T00:51:53;14.60;99.90
2387;DHT22;49473;50.772;8.768;2022-09-03T00:54:30;14.60;99.90
2387;DHT22;49473;50.772;8.768;2022-09-03T00:57:15;14.50;99.90
2387;DHT22;49473;50.772;8.768;2022-09-03T00:59:53;14.50;99.90
2387;DHT22;49473;50.772;8.768;2022-09-03T01:02:25;14.50;99.90
2387;DHT22;49473;50.772;8.768;2022-09-03T01:04:58;14.40;99.90
2387;DHT22;49473;50.772;8.768;2022-09-03T01:07:39;14.30;99.90
2387;DHT22;49473;50.772;8.768;2022-09-03T01:12:50;14.00;99.90
2387;DHT22;49473;50.772;8.768;2022-09-03T01:15:26;13.90;99.90
2387;DHT22;49473;50.772;8.768;2022-09-03T01:18:04;13.80;99.90
2387;DHT22;49473;50.772;8.768;2022-09-03T01:20:40;13.90;99.90
2387;DHT22;49473;50.772;8.768;2022-09-03T01:23:27;13.80;99.90
2387;DHT22;49473;50.772;8.768;2022-09-03T01:26:09;13.50;99.90
2387;DHT22;49473;50.772;8.768;2022-09-03T01:28:49;13.40;99.90
2387;DHT22;49473;50.772;8.768;2022-09-03T01:31:27;13.30;99.90
2387;DHT22;49473;50.772;8.768;2022-09-03T01:34:03;13.10;99.90
2387;DHT22;49473;50.772;8.768;2022-09-03T01:36:41;13.10;99.90
2387;DHT22;49473;50.772;8.768;2022-09-03T01:39:19;13.10;99.90
2387;DHT22;49473;50.772;8.768;2022-09-03T01:41:59;13.00;99.90
2387;DHT22;49473;50.772;8.768;2022-09-03T01:44:56;13.00;99.90
2387;DHT22;49473;50.772;8.768;2022-09-03T01:47:42;13.00;99.90
2387;DHT22;49473;50.772;8.768;2022-09-03T01:50:23;13.00;99.90
2387;DHT22;49473;50.772;8.768;2022-09-03T01:52:56;13.00;99.90
2387;DHT22;49473;50.772;8.768;2022-09-03T01:55:30;12.90;99.90
2387;DHT22;49473;50.772;8.768;2022-09-03T01:58:01;12.90;99.90
2387;DHT22;49473;50.772;8.768;2022-09-03T02:00:33;12.80;99.90
2387;DHT22;49473;50.772;8.768;2022-09-03T02:03:04;12.80;99.90
2387;DHT22;49473;50.772;8.768;2022-09-03T02:05:31;12.70;99.90
2387;DHT22;49473;50.772;8.768;2022-09-03T02:08:02;12.70;99.90
2387;DHT22;49473;50.772;8.768;2022-09-03T02:10:33;12.60;99.90
2387;DHT22;49473;50.772;8.768;2022-09-03T02:13:05;12.60;99.90
2387;DHT22;49473;50.772;8.768;2022-09-03T02:15:35;12.50;99.90
2387;DHT22;49473;50.772;8.768;2022-09-03T02:18:06;12.50;99.90
2387;DHT22;49473;50.772;8.768;2022-09-03T02:20:36;12.50;99.90
2387;DHT22;49473;50.772;8.768;2022-09-03T02:23:04;12.40;99.90
2387;DHT22;49473;50.772;8.768;2022-09-03T02:25:36;12.30;99.90
2387;DHT22;49473;50.772;8.768;2022-09-03T02:28:04;12.30;99.90
2387;DHT22;49473;50.772;8.768;2022-09-03T02:30:31;12.20;99.90
2387;DHT22;49473;50.772;8.768;2022-09-03T02:33:00;12.20;99.90
2387;DHT22;49473;50.772;8.768;2022-09-03T02:35:27;12.10;99.90
2387;DHT22;49473;50.772;8.768;2022-09-03T02:37:54;12.10;99.90
2387;DHT22;49473;50.772;8.768;2022-09-03T02:40:20;12.00;99.90
2387;DHT22;49473;50.772;8.768;2022-09-03T02:42:48;12.00;99.90
2387;DHT22;49473;50.772;8.768;2022-09-03T02:45:21;12.00;99.90
2387;DHT22;49473;50.772;8.768;2022-09-03T02:47:54;11.90;99.90
2387;DHT22;49473;50.772;8.768;2022-09-03T02:50:23;11.90;99.90
2387;DHT22;49473;50.772;8.768;2022-09-03T02:52:50;11.80;99.90
2387;DHT22;49473;50.772;8.768;2022-09-03T02:55:17;11.70;99.90
2387;DHT22;49473;50.772;8.768;2022-09-03T02:57:45;11.60;99.90
2387;DHT22;49473;50.772;8.768;2022-09-03T03:00:13;11.50;99.90
2387;DHT22;49473;50.772;8.768;2022-09-03T03:02:40;11.50;99.90
2387;DHT22;49473;50.772;8.768;2022-09-03T03:05:08;11.40;99.90
2387;DHT22;49473;50.772;8.768;2022-09-03T03:07:40;11.30;99.90
2387;DHT22;49473;50.772;8.768;2022-09-03T03:10:07;11.30;99.90
2387;DHT22;49473;50.772;8.768;2022-09-03T03:12:34;11.20;99.90
2387;DHT22;49473;50.772;8.768;2022-09-03T03:15:01;11.20;99.90
2387;DHT22;49473;50.772;8.768;2022-09-03T03:17:28;11.10;99.90
2387;DHT22;49473;50.772;8.768;2022-09-03T03:19:55;11.10;99.90
2387;DHT22;49473;50.772;8.768;2022-09-03T03:22:22;11.10;99.90
2387;DHT22;49473;50.772;8.768;2022-09-03T03:24:50;11.00;99.90
2387;DHT22;49473;50.772;8.768;2022-09-03T03:27:17;11.00;99.90
2387;DHT22;49473;50.772;8.768;2022-09-03T03:29:44;11.00;99.90
2387;DHT22;49473;50.772;8.768;2022-09-03T03:32:11;11.00;99.90
2387;DHT22;49473;50.772;8.768;2022-09-03T03:34:38;11.00;99.90
2387;DHT22;49473;50.772;8.768;2022-09-03T03:37:04;11.10;99.90
2387;DHT22;49473;50.772;8.768;2022-09-03T03:39:31;11.10;99.90
2387;DHT22;49473;50.772;8.768;2022-09-03T03:41:59;11.10;99.90
2387;DHT22;49473;50.772;8.768;2022-09-03T03:44:26;11.00;99.90
2387;DHT22;49473;50.772;8.768;2022-09-03T03:46:54;11.10;99.90
2387;DHT22;49473;50.772;8.768;2022-09-03T03:49:20;11.10;99.90
2387;DHT22;49473;50.772;8.768;2022-09-03T03:51:47;11.00;99.90
2387;DHT22;49473;50.772;8.768;2022-09-03T03:54:14;11.00;99.90
2387;DHT22;49473;50.772;8.768;2022-09-03T03:56:41;11.00;99.90
2387;DHT22;49473;50.772;8.768;2022-09-03T03:59:09;11.00;99.90
2387;DHT22;49473;50.772;8.768;2022-09-03T04:01:35;11.00;99.90
2387;DHT22;49473;50.772;8.768;2022-09-03T04:04:03;11.00;99.90
2387;DHT22;49473;50.772;8.768;2022-09-03T04:06:30;11.00;99.90
2387;DHT22;49473;50.772;8.768;2022-09-03T04:08:57;11.10;99.90
2387;DHT22;49473;50.772;8.768;2022-09-03T04:11:24;11.00;99.90
2387;DHT22;49473;50.772;8.768;2022-09-03T04:13:52;11.00;99.90
2387;DHT22;49473;50.772;8.768;2022-09-03T04:16:22;11.00;99.90
2387;DHT22;49473;50.772;8.768;2022-09-03T04:18:51;11.10;99.90
2387;DHT22;49473;50.772;8.768;2022-09-03T04:21:19;11.00;99.90
2387;DHT22;49473;50.772;8.768;2022-09-03T04:23:47;11.00;99.90
2387;DHT22;49473;50.772;8.768;2022-09-03T04:26:15;11.00;99.90
2387;DHT22;49473;50.772;8.768;2022-09-03T04:28:43;11.00;99.90
2387;DHT22;49473;50.772;8.768;2022-09-03T04:31:12;11.00;99.90
2387;DHT22;49473;50.772;8.768;2022-09-03T04:33:41;10.90;99.90
2387;DHT22;49473;50.772;8.768;2022-09-03T04:36:08;10.90;99.90
2387;DHT22;49473;50.772;8.768;2022-09-03T04:38:37;10.90;99.90
2387;DHT22;49473;50.772;8.768;2022-09-03T04:41:04;10.90;99.90
2387;DHT22;49473;50.772;8.768;2022-09-03T04:43:32;10.90;99.90
2387;DHT22;49473;50.772;8.768;2022-09-03T04:46:00;10.90;99.90
2387;DHT22;49473;50.772;8.768;2022-09-03T04:48:28;10.90;99.90
2387;DHT22;49473;50.772;8.768;2022-09-03T04:51:03;10.90;99.90
2387;DHT22;49473;50.772;8.768;2022-09-03T04:53:31;10.90;99.90
2387;DHT22;49473;50.772;8.768;2022-09-03T04:55:58;10.90;99.90
2387;DHT22;49473;50.772;8.768;2022-09-03T04:58:25;10.90;99.90
2387;DHT22;49473;50.772;8.768;2022-09-03T05:00:52;10.90;99.90
2387;DHT22;49473;50.772;8.768;2022-09-03T05:03:19;11.00;99.90
2387;DHT22;49473;50.772;8.768;2022-09-03T05:05:53;11.10;99.90
2387;DHT22;49473;50.772;8.768;2022-09-03T05:08:22;11.10;99.90
2387;DHT22;49473;50.772;8.768;2022-09-03T05:10:57;11.10;99.90
2387;DHT22;49473;50.772;8.768;2022-09-03T05:13:24;11.20;99.90
2387;DHT22;49473;50.772;8.768;2022-09-03T05:15:51;11.30;99.90
2387;DHT22;49473;50.772;8.768;2022-09-03T05:18:18;11.50;99.90
2387;DHT22;49473;50.772;8.768;2022-09-03T05:20:45;11.70;99.90
2387;DHT22;49473;50.772;8.768;2022-09-03T05:23:12;12.00;99.90
2387;DHT22;49473;50.772;8.768;2022-09-03T05:25:40;12.10;99.90
2387;DHT22;49473;50.772;8.768;2022-09-03T05:28:07;12.30;99.90
2387;DHT22;49473;50.772;8.768;2022-09-03T05:30:34;12.40;99.90
2387;DHT22;49473;50.772;8.768;2022-09-03T05:33:01;12.60;99.90
2387;DHT22;49473;50.772;8.768;2022-09-03T05:35:30;12.90;99.90
2387;DHT22;49473;50.772;8.768;2022-09-03T05:37:57;13.30;99.90
2387;DHT22;49473;50.772;8.768;2022-09-03T05:40:25;13.80;99.90
2387;DHT22;49473;50.772;8.768;2022-09-03T05:42:55;14.00;99.90
2387;DHT22;49473;50.772;8.768;2022-09-03T05:45:23;14.10;99.90
2387;DHT22;49473;50.772;8.768;2022-09-03T05:47:50;14.10;99.90
2387;DHT22;49473;50.772;8.768;2022-09-03T05:50:17;14.20;99.90
2387;DHT22;49473;50.772;8.768;2022-09-03T05:52:44;14.00;99.90
2387;DHT22;49473;50.772;8.768;2022-09-03T05:55:10;14.20;99.90
2387;DHT22;49473;50.772;8.768;2022-09-03T05:57:37;14.50;99.90
2387;DHT22;49473;50.772;8.768;2022-09-03T06:00:08;15.00;99.90
2387;DHT22;49473;50.772;8.768;2022-09-03T06:02:36;15.80;99.90
2387;DHT22;49473;50.772;8.768;2022-09-03T06:05:03;16.50;99.90
2387;DHT22;49473;50.772;8.768;2022-09-03T06:07:30;16.80;99.90
2387;DHT22;49473;50.772;8.768;2022-09-03T06:09:58;16.50;99.90
2387;DHT22;49473;50.772;8.768;2022-09-03T06:12:25;16.20;99.90
2387;DHT22;49473;50.772;8.768;2022-09-03T06:14:52;16.00;99.90
2387;DHT22;49473;50.772;8.768;2022-09-03T06:17:20;16.60;99.90
2387;DHT22;49473;50.772;8.768;2022-09-03T06:19:46;17.00;99.90
2387;DHT22;49473;50.772;8.768;2022-09-03T06:22:14;17.20;99.90
2387;DHT22;49473;50.772;8.768;2022-09-03T06:37:25;20.70;99.90
2387;DHT22;49473;50.772;8.768;2022-09-03T06:39:52;21.10;99.90
2387;DHT22;49473;50.772;8.768;2022-09-03T06:42:19;21.50;99.90
2387;DHT22;49473;50.772;8.768;2022-09-03T06:44:48;22.10;99.90
2387;DHT22;49473;50.772;8.768;2022-09-03T06:47:15;22.10;99.90
2387;DHT22;49473;50.772;8.768;2022-09-03T06:49:42;21.90;99.90
2387;DHT22;49473;50.772;8.768;2022-09-03T06:52:10;21.50;99.40
2387;DHT22;49473;50.772;8.768;2022-09-03T06:54:37;20.00;99.90
2387;DHT22;49473;50.772;8.768;2022-09-03T06:59:31;18.50;99.90
2387;DHT22;49473;50.772;8.768;2022-09-03T07:01:57;17.70;99.90
2387;DHT22;49473;50.772;8.768;2022-09-03T07:04:25;17.20;99.90
2387;DHT22;49473;50.772;8.768;2022-09-03T07:06:52;16.80;99.90
2387;DHT22;49473;50.772;8.768;2022-09-03T07:09:20;16.60;99.90
2387;DHT22;49473;50.772;8.768;2022-09-03T07:11:46;16.50;99.90
2387;DHT22;49473;50.772;8.768;2022-09-03T07:14:15;16.40;99.90
2387;DHT22;49473;50.772;8.768;2022-09-03T07:16:42;16.40;99.90
2387;DHT22;49473;50.772;8.768;2022-09-03T07:19:09;16.50;99.90
2387;DHT22;49473;50.772;8.768;2022-09-03T07:21:38;16.30;99.90
2387;DHT22;49473;50.772;8.768;2022-09-03T07:24:07;16.30;99.90
2387;DHT22;49473;50.772;8.768;2022-09-03T07:26:38;16.30;99.90
2387;DHT22;49473;50.772;8.768;2022-09-03T07:29:05;16.30;99.90
2387;DHT22;49473;50.772;8.768;2022-09-03T07:31:34;16.30;99.90
2387;DHT22;49473;50.772;8.768;2022-09-03T07:34:03;16.20;99.90
2387;DHT22;49473;50.772;8.768;2022-09-03T07:36:35;16.20;99.90
2387;DHT22;49473;50.772;8.768;2022-09-03T07:39:04;16.30;99.90
2387;DHT22;49473;50.772;8.768;2022-09-03T07:41:31;16.30;99.90
2387;DHT22;49473;50.772;8.768;2022-09-03T07:43:59;16.30;99.90
2387;DHT22;49473;50.772;8.768;2022-09-03T07:46:32;16.50;99.90
2387;DHT22;49473;50.772;8.768;2022-09-03T07:49:00;16.60;99.90
2387;DHT22;49473;50.772;8.768;2022-09-03T07:51:28;16.80;99.90
2387;DHT22;49473;50.772;8.768;2022-09-03T07:53:57;16.90;99.90
2387;DHT22;49473;50.772;8.768;2022-09-03T07:56:25;16.90;99.90
2387;DHT22;49473;50.772;8.768;2022-09-03T07:58:52;16.90;99.90
2387;DHT22;49473;50.772;8.768;2022-09-03T08:01:22;17.10;99.90
2387;DHT22;49473;50.772;8.768;2022-09-03T08:03:51;17.20;99.90
2387;DHT22;49473;50.772;8.768;2022-09-03T08:06:20;17.20;99.90
2387;DHT22;49473;50.772;8.768;2022-09-03T08:08:47;17.30;99.90
2387;DHT22;49473;50.772;8.768;2022-09-03T08:11:16;17.40;99.90
2387;DHT22;49473;50.772;8.768;2022-09-03T08:13:45;17.50;99.90
2387;DHT22;49473;50.772;8.768;2022-09-03T08:16:14;17.70;99.90
2387;DHT22;49473;50.772;8.768;2022-09-03T08:18:44;17.70;99.90
2387;DHT22;49473;50.772;8.768;2022-09-03T08:21:14;18.00;99.90
2387;DHT22;49473;50.772;8.768;2022-09-03T08:23:43;18.00;99.90
2387;DHT22;49473;50.772;8.768;2022-09-03T08:26:10;18.30;99.90
2387;DHT22;49473;50.772;8.768;2022-09-03T08:28:38;18.30;99.90
2387;DHT22;49473;50.772;8.768;2022-09-03T08:31:06;18.20;99.90
2387;DHT22;49473;50.772;8.768;2022-09-03T08:33:34;18.20;99.90
2387;DHT22;49473;50.772;8.768;2022-09-03T08:36:07;18.30;99.90
2387;DHT22;49473;50.772;8.768;2022-09-03T08:38:35;18.50;99.90
2387;DHT22;49473;50.772;8.768;2022-09-03T08:41:06;18.30;99.90
2387;DHT22;49473;50.772;8.768;2022-09-03T08:43:45;18.50;99.90
2387;DHT22;49473;50.772;8.768;2022-09-03T08:46:16;18.40;99.90
2387;DHT22;49473;50.772;8.768;2022-09-03T08:48:43;18.40;99.90
2387;DHT22;49473;50.772;8.768;2022-09-03T08:51:13;18.30;99.90
2387;DHT22;49473;50.772;8.768;2022-09-03T08:53:45;18.40;99.90
2387;DHT22;49473;50.772;8.768;2022-09-03T08:56:20;18.30;99.90
2387;DHT22;49473;50.772;8.768;2022-09-03T08:58:47;18.40;99.90
2387;DHT22;49473;50.772;8.768;2022-09-03T09:01:21;18.70;99.90
2387;DHT22;49473;50.772;8.768;2022-09-03T09:03:59;18.90;99.90
2387;DHT22;49473;50.772;8.768;2022-09-03T09:06:34;19.00;99.90
2387;DHT22;49473;50.772;8.768;2022-09-03T09:09:11;19.20;99.90
2387;DHT22;49473;50.772;8.768;2022-09-03T09:11:48;19.40;99.90
2387;DHT22;49473;50.772;8.768;2022-09-03T09:14:19;19.80;99.90
2387;DHT22;49473;50.772;8.768;2022-09-03T09:16:56;20.00;99.90
2387;DHT22;49473;50.772;8.768;2022-09-03T09:19:36;20.20;99.90
2387;DHT22;49473;50.772;8.768;2022-09-03T09:22:08;20.20;99.90
2387;DHT22;49473;50.772;8.768;2022-09-03T09:24:40;20.40;99.90
2387;DHT22;49473;50.772;8.768;2022-09-03T09:27:07;20.70;99.90
2387;DHT22;49473;50.772;8.768;2022-09-03T09:29:36;20.60;99.90
2387;DHT22;49473;50.772;8.768;2022-09-03T09:32:05;20.60;99.90
2387;DHT22;49473;50.772;8.768;2022-09-03T09:34:34;20.80;99.90
2387;DHT22;49473;50.772;8.768;2022-09-03T09:37:05;20.80;99.90
2387;DHT22;49473;50.772;8.768;2022-09-03T09:39:33;20.70;99.90
2387;DHT22;49473;50.772;8.768;2022-09-03T09:42:04;20.60;99.90
2387;DHT22;49473;50.772;8.768;2022-09-03T09:44:32;20.50;99.90
2387;DHT22;49473;50.772;8.768;2022-09-03T09:47:04;20.50;99.90
2387;DHT22;49473;50.772;8.768;2022-09-03T09:49:34;20.70;99.90
2387;DHT22;49473;50.772;8.768;2022-09-03T09:52:06;20.70;99.90
2387;DHT22;49473;50.772;8.768;2022-09-03T09:54:34;20.80;99.90
2387;DHT22;49473;50.772;8.768;2022-09-03T09:57:03;20.90;99.90
2387;DHT22;49473;50.772;8.768;2022-09-03T09:59:31;20.80;99.90
2387;DHT22;49473;50.772;8.768;2022-09-03T10:02:08;20.60;99.90
2387;DHT22;49473;50.772;8.768;2022-09-03T10:04:37;20.60;99.90
2387;DHT22;49473;50.772;8.768;2022-09-03T10:07:19;20.50;99.90
2387;DHT22;49473;50.772;8.768;2022-09-03T10:10:00;20.40;99.90
2387;DHT22;49473;50.772;8.768;2022-09-03T10:12:31;20.10;99.90
2387;DHT22;49473;50.772;8.768;2022-09-03T10:15:07;19.90;99.90
2387;DHT22;49473;50.772;8.768;2022-09-03T10:17:43;19.80;99.90
2387;DHT22;49473;50.772;8.768;2022-09-03T10:20:17;19.80;99.90
2387;DHT22;49473;50.772;8.768;2022-09-03T10:23:01;19.90;99.90
2387;DHT22;49473;50.772;8.768;2022-09-03T10:25:35;20.00;99.90
2387;DHT22;49473;50.772;8.768;2022-09-03T10:28:06;20.10;99.90
2387;DHT22;49473;50.772;8.768;2022-09-03T10:30:41;20.20;99.90
2387;DHT22;49473;50.772;8.768;2022-09-03T10:33:15;20.30;99.90
2387;DHT22;49473;50.772;8.768;2022-09-03T10:35:49;20.20;99.90
2387;DHT22;49473;50.772;8.768;2022-09-03T10:38:26;19.90;99.90
2387;DHT22;49473;50.772;8.768;2022-09-03T10:41:00;19.90;99.90
2387;DHT22;49473;50.772;8.768;2022-09-03T10:46:28;19.90;99.90
2387;DHT22;49473;50.772;8.768;2022-09-03T10:49:14;19.90;99.90
2387;DHT22;49473;50.772;8.768;2022-09-03T10:51:51;20.10;99.90
2387;DHT22;49473;50.772;8.768;2022-09-03T10:54:33;20.30;99.90
2387;DHT22;49473;50.772;8.768;2022-09-03T10:57:11;20.10;99.90
2387;DHT22;49473;50.772;8.768;2022-09-03T10:59:54;20.20;99.90
2387;DHT22;49473;50.772;8.768;2022-09-03T11:02:38;20.20;99.90
2387;DHT22;49473;50.772;8.768;2022-09-03T11:05:12;20.30;99.90
2387;DHT22;49473;50.772;8.768;2022-09-03T11:07:44;20.70;99.90
2387;DHT22;49473;50.772;8.768;2022-09-03T11:10:16;20.90;99.90
2387;DHT22;49473;50.772;8.768;2022-09-03T11:12:47;21.20;99.90
2387;DHT22;49473;50.772;8.768;2022-09-03T11:15:22;21.50;99.90
2387;DHT22;49473;50.772;8.768;2022-09-03T11:17:53;21.50;99.90
2387;DHT22;49473;50.772;8.768;2022-09-03T11:20:23;21.20;99.90
2387;DHT22;49473;50.772;8.768;2022-09-03T11:22:53;21.10;99.90
2387;DHT22;49473;50.772;8.768;2022-09-03T11:25:26;20.90;99.90
2387;DHT22;49473;50.772;8.768;2022-09-03T11:27:58;20.70;99.90
2387;DHT22;49473;50.772;8.768;2022-09-03T11:30:34;20.60;99.90
2387;DHT22;49473;50.772;8.768;2022-09-03T11:33:07;20.40;99.90
2387;DHT22;49473;50.772;8.768;2022-09-03T11:35:38;20.20;99.90
2387;DHT22;49473;50.772;8.768;2022-09-03T11:38:18;20.10;99.90
2387;DHT22;49473;50.772;8.768;2022-09-03T11:40:57;20.10;99.90
2387;DHT22;49473;50.772;8.768;2022-09-03T11:43:27;20.10;99.90
2387;DHT22;49473;50.772;8.768;2022-09-03T11:46:02;20.00;99.90
2387;DHT22;49473;50.772;8.768;2022-09-03T11:48:37;20.00;99.90
2387;DHT22;49473;50.772;8.768;2022-09-03T11:51:16;20.10;99.90
2387;DHT22;49473;50.772;8.768;2022-09-03T11:53:53;20.10;99.90
2387;DHT22;49473;50.772;8.768;2022-09-03T11:56:22;20.10;99.90
2387;DHT22;49473;50.772;8.768;2022-09-03T12:01:43;20.30;99.90
2387;DHT22;49473;50.772;8.768;2022-09-03T12:04:18;20.30;99.90
2387;DHT22;49473;50.772;8.768;2022-09-03T12:07:18;20.50;99.90
2387;DHT22;49473;50.772;8.768;2022-09-03T12:10:08;20.60;99.90
2387;DHT22;49473;50.772;8.768;2022-09-03T12:12:51;20.80;99.90
2387;DHT22;49473;50.772;8.768;2022-09-03T12:15:37;21.10;99.90
2387;DHT22;49473;50.772;8.768;2022-09-03T12:18:10;21.20;99.90
2387;DHT22;49473;50.772;8.768;2022-09-03T12:20:58;21.20;99.90
2387;DHT22;49473;50.772;8.768;2022-09-03T12:23:27;21.30;99.90
2387;DHT22;49473;50.772;8.768;2022-09-03T12:25:54;21.50;99.90
2387;DHT22;49473;50.772;8.768;2022-09-03T12:28:23;21.70;99.90
2387;DHT22;49473;50.772;8.768;2022-09-03T12:30:52;21.90;99.90
2387;DHT22;49473;50.772;8.768;2022-09-03T12:33:19;22.00;99.90
2387;DHT22;49473;50.772;8.768;2022-09-03T12:35:55;22.00;99.90
2387;DHT22;49473;50.772;8.768;2022-09-03T12:38:23;21.90;99.90
2387;DHT22;49473;50.772;8.768;2022-09-03T12:40:50;22.00;99.90
2387;DHT22;49473;50.772;8.768;2022-09-03T12:43:17;22.00;99.90
2387;DHT22;49473;50.772;8.768;2022-09-03T12:45:47;22.30;99.90
2387;DHT22;49473;50.772;8.768;2022-09-03T12:48:16;22.50;99.90
2387;DHT22;49473;50.772;8.768;2022-09-03T12:50:44;22.50;99.90
2387;DHT22;49473;50.772;8.768;2022-09-03T12:53:13;22.20;99.90
2387;DHT22;49473;50.772;8.768;2022-09-03T12:55:42;21.90;99.90
2387;DHT22;49473;50.772;8.768;2022-09-03T12:58:14;21.90;99.90
2387;DHT22;49473;50.772;8.768;2022-09-03T13:00:46;21.70;99.90
2387;DHT22;49473;50.772;8.768;2022-09-03T13:03:17;21.80;99.90
2387;DHT22;49473;50.772;8.768;2022-09-03T13:05:48;22.00;99.90
2387;DHT22;49473;50.772;8.768;2022-09-03T13:08:19;21.90;99.90
2387;DHT22;49473;50.772;8.768;2022-09-03T13:10:51;22.10;99.90
2387;DHT22;49473;50.772;8.768;2022-09-03T13:13:21;22.30;99.90
2387;DHT22;49473;50.772;8.768;2022-09-03T13:16:16;22.30;99.90
2387;DHT22;49473;50.772;8.768;2022-09-03T13:18:51;22.30;99.90
2387;DHT22;49473;50.772;8.768;2022-09-03T13:21:30;22.80;99.90
2387;DHT22;49473;50.772;8.768;2022-09-03T13:26:50;27.10;99.90
2387;DHT22;49473;50.772;8.768;2022-09-03T13:32:15;29.40;94.70
2387;DHT22;49473;50.772;8.768;2022-09-03T13:34:49;29.30;93.40
2387;DHT22;49473;50.772;8.768;2022-09-03T13:37:24;28.90;92.50
2387;DHT22;49473;50.772;8.768;2022-09-03T13:39:54;28.60;91.60
2387;DHT22;49473;50.772;8.768;2022-09-03T13:42:26;28.90;90.20
2387;DHT22;49473;50.772;8.768;2022-09-03T13:45:00;29.50;88.90
2387;DHT22;49473;50.772;8.768;2022-09-03T13:47:36;30.80;82.60
2387;DHT22;49473;50.772;8.768;2022-09-03T13:50:27;30.90;80.30
2387;DHT22;49473;50.772;8.768;2022-09-03T13:52:56;29.60;79.50
2387;DHT22;49473;50.772;8.768;2022-09-03T13:55:27;28.40;81.40
2387;DHT22;49473;50.772;8.768;2022-09-03T13:58:01;27.40;83.20
2387;DHT22;49473;50.772;8.768;2022-09-03T14:00:32;27.30;84.90
2387;DHT22;49473;50.772;8.768;2022-09-03T14:03:07;27.10;85.70
2387;DHT22;49473;50.772;8.768;2022-09-03T14:05:48;26.80;85.10
2387;DHT22;49473;50.772;8.768;2022-09-03T14:08:22;26.50;86.90
2387;DHT22;49473;50.772;8.768;2022-09-03T14:10:55;25.80;88.00
2387;DHT22;49473;50.772;8.768;2022-09-03T14:13:35;25.20;89.60
2387;DHT22;49473;50.772;8.768;2022-09-03T14:16:06;24.80;90.70
2387;DHT22;49473;50.772;8.768;2022-09-03T14:18:43;24.90;91.10
2387;DHT22;49473;50.772;8.768;2022-09-03T14:21:15;24.50;91.00
2387;DHT22;49473;50.772;8.768;2022-09-03T14:23:46;24.30;91.90
2387;DHT22;49473;50.772;8.768;2022-09-03T14:26:17;24.20;92.60
2387;DHT22;49473;50.772;8.768;2022-09-03T14:28:48;24.00;93.00
2387;DHT22;49473;50.772;8.768;2022-09-03T14:31:22;24.10;93.40
2387;DHT22;49473;50.772;8.768;2022-09-03T14:33:59;24.20;93.70
2387;DHT22;49473;50.772;8.768;2022-09-03T14:36:32;24.30;93.00
2387;DHT22;49473;50.772;8.768;2022-09-03T14:39:15;24.40;93.00
2387;DHT22;49473;50.772;8.768;2022-09-03T14:45:36;24.70;94.10
2387;DHT22;49473;50.772;8.768;2022-09-03T14:48:31;24.70;92.70
2387;DHT22;49473;50.772;8.768;2022-09-03T14:51:14;24.50;93.90
2387;DHT22;49473;50.772;8.768;2022-09-03T14:56:46;24.50;93.20
2387;DHT22;49473;50.772;8.768;2022-09-03T15:02:25;24.00;93.20
2387;DHT22;49473;50.772;8.768;2022-09-03T15:05:08;23.90;93.50
2387;DHT22;49473;50.772;8.768;2022-09-03T15:07:42;24.10;94.30
2387;DHT22;49473;50.772;8.768;2022-09-03T15:10:17;24.00;94.90
2387;DHT22;49473;50.772;8.768;2022-09-03T15:12:49;23.90;94.50
2387;DHT22;49473;50.772;8.768;2022-09-03T15:15:19;24.00;95.00
2387;DHT22;49473;50.772;8.768;2022-09-03T15:18:03;24.10;94.60
2387;DHT22;49473;50.772;8.768;2022-09-03T15:20:46;24.00;94.90
2387;DHT22;49473;50.772;8.768;2022-09-03T15:23:22;23.40;96.00
2387;DHT22;49473;50.772;8.768;2022-09-03T15:28:48;23.20;97.00
2387;DHT22;49473;50.772;8.768;2022-09-03T15:31:23;23.00;97.20
2387;DHT22;49473;50.772;8.768;2022-09-03T15:33:57;22.90;97.80
2387;DHT22;49473;50.772;8.768;2022-09-03T15:36:26;22.80;98.10
2387;DHT22;49473;50.772;8.768;2022-09-03T15:39:05;22.70;98.40
2387;DHT22;49473;50.772;8.768;2022-09-03T15:41:36;22.80;98.80
2387;DHT22;49473;50.772;8.768;2022-09-03T15:44:10;22.70;98.50
2387;DHT22;49473;50.772;8.768;2022-09-03T15:46:47;22.60;98.90
2387;DHT22;49473;50.772;8.768;2022-09-03T15:49:25;22.60;99.00
2387;DHT22;49473;50.772;8.768;2022-09-03T15:52:02;22.70;99.20
2387;DHT22;49473;50.772;8.768;2022-09-03T15:54:38;22.70;99.30
2387;DHT22;49473;50.772;8.768;2022-09-03T15:57:11;22.80;99.80
2387;DHT22;49473;50.772;8.768;2022-09-03T15:59:40;22.90;99.00
2387;DHT22;49473;50.772;8.768;2022-09-03T16:02:14;23.10;99.30
2387;DHT22;49473;50.772;8.768;2022-09-03T16:04:59;23.10;99.80
2387;DHT22;49473;50.772;8.768;2022-09-03T16:07:45;23.30;99.30
2387;DHT22;49473;50.772;8.768;2022-09-03T16:10:18;23.40;99.20
2387;DHT22;49473;50.772;8.768;2022-09-03T16:12:56;23.30;99.30
2387;DHT22;49473;50.772;8.768;2022-09-03T16:15:27;23.40;99.90
2387;DHT22;49473;50.772;8.768;2022-09-03T16:17:58;23.30;99.90
2387;DHT22;49473;50.772;8.768;2022-09-03T16:20:32;23.40;99.90
2387;DHT22;49473;50.772;8.768;2022-09-03T16:23:04;23.30;99.10
2387;DHT22;49473;50.772;8.768;2022-09-03T16:25:44;23.30;99.00
2387;DHT22;49473;50.772;8.768;2022-09-03T16:28:17;23.20;99.20
2387;DHT22;49473;50.772;8.768;2022-09-03T16:30:55;23.10;99.90
2387;DHT22;49473;50.772;8.768;2022-09-03T16:33:29;23.20;99.90
2387;DHT22;49473;50.772;8.768;2022-09-03T16:36:05;23.20;99.90
2387;DHT22;49473;50.772;8.768;2022-09-03T16:38:44;23.20;99.90
2387;DHT22;49473;50.772;8.768;2022-09-03T16:41:26;23.20;99.90
2387;DHT22;49473;50.772;8.768;2022-09-03T16:44:01;23.10;99.50
2387;DHT22;49473;50.772;8.768;2022-09-03T16:46:35;23.10;99.70
2387;DHT22;49473;50.772;8.768;2022-09-03T16:49:21;23.00;99.60
2387;DHT22;49473;50.772;8.768;2022-09-03T16:51:54;23.00;99.90
2387;DHT22;49473;50.772;8.768;2022-09-03T16:54:35;23.00;99.90
2387;DHT22;49473;50.772;8.768;2022-09-03T16:57:20;23.00;99.90